createdAt,value
2018-04-06T00:02:00.941Z,5.10
2018-04-06T00:07:04.241Z,5.10
2018-04-06T00:12:07.457Z,5.00
2018-04-06T00:17:10.778Z,4.90
2018-04-06T00:22:13.993Z,4.80
2018-04-06T00:27:17.710Z,4.40
2018-04-06T00:32:21.405Z,4.30
2018-04-06T00:37:24.616Z,4.30
2018-04-06T00:42:27.931Z,4.20
2018-04-06T00:47:31.156Z,4.10
2018-04-06T00:52:34.406Z,4.00
2018-04-06T00:57:37.619Z,3.90
2018-04-06T01:02:40.956Z,3.80
2018-04-06T01:07:44.169Z,3.80
2018-04-06T01:12:47.399Z,3.70
2018-04-06T01:17:50.599Z,3.50
2018-04-06T01:22:54.192Z,3.30
2018-04-06T01:27:57.879Z,3.40
2018-04-06T01:33:01.089Z,3.40
2018-04-06T01:38:04.301Z,3.50
2018-04-06T01:43:07.523Z,3.60
2018-04-06T01:48:10.747Z,3.50
2018-04-06T01:53:14.372Z,3.40
2018-04-06T01:58:17.571Z,3.40
2018-04-06T02:03:21.164Z,3.40
2018-04-06T02:08:24.424Z,3.40
2018-04-06T02:13:27.645Z,3.30
2018-04-06T02:18:30.942Z,3.20
2018-04-06T02:23:34.162Z,3.00
2018-04-06T02:28:37.371Z,2.80
2018-04-06T02:34:01.873Z,2.90
2018-04-06T02:39:05.235Z,2.90
2018-04-06T02:44:08.469Z,2.90
2018-04-06T02:49:11.840Z,2.90
2018-04-06T02:54:15.508Z,3.00
2018-04-06T02:59:18.716Z,3.00
2018-04-06T03:04:22.050Z,3.20
2018-04-06T03:09:25.467Z,3.70
2018-04-06T03:14:29.068Z,4.20
2018-04-06T03:19:34.135Z,4.20
2018-04-06T03:24:54.045Z,4.40
2018-04-06T03:29:57.277Z,4.40
2018-04-06T03:35:00.480Z,4.60
2018-04-06T03:40:03.750Z,4.70
2018-04-06T03:45:07.370Z,4.70
2018-04-06T03:50:10.968Z,4.80
2018-04-06T03:55:16.612Z,4.80
2018-04-06T04:00:19.912Z,4.80
2018-04-06T04:05:23.116Z,4.70
2018-04-06T04:10:26.447Z,4.70
2018-04-06T04:15:29.788Z,4.60
2018-04-06T04:20:33.037Z,4.50
2018-04-06T04:25:36.339Z,4.60
2018-04-06T04:30:39.559Z,4.50
2018-04-06T04:35:42.830Z,4.40
2018-04-06T04:40:46.190Z,4.40
2018-04-06T04:45:49.498Z,4.40
2018-04-06T04:50:52.880Z,4.30
2018-04-06T04:55:56.124Z,4.30
2018-04-06T05:00:59.805Z,4.40
2018-04-06T05:06:03.771Z,4.40
2018-04-06T05:11:07.011Z,4.40
2018-04-06T05:16:10.243Z,4.40
2018-04-06T05:21:13.481Z,4.50
2018-04-06T05:26:16.785Z,4.50
2018-04-06T05:31:20.031Z,4.60
2018-04-06T05:36:23.280Z,4.80
2018-04-06T05:41:26.493Z,4.90
2018-04-06T05:46:29.779Z,5.00
2018-04-06T05:51:33.031Z,5.00
2018-04-06T05:56:36.743Z,5.20
2018-04-06T06:01:40.443Z,5.20
2018-04-06T06:06:44.695Z,5.20
2018-04-06T06:11:48.344Z,5.20
2018-04-06T06:17:13.240Z,5.20
2018-04-06T06:22:16.611Z,5.30
2018-04-06T06:27:19.892Z,5.40
2018-04-06T06:32:23.258Z,5.60
2018-04-06T06:37:26.532Z,5.80
2018-04-06T06:42:29.943Z,5.90
2018-04-06T06:47:33.686Z,6.30
2018-04-06T06:52:36.931Z,6.20
2018-04-06T06:57:40.149Z,6.40
2018-04-06T07:02:44.465Z,6.50
2018-04-06T07:07:47.812Z,6.80
2018-04-06T07:12:51.831Z,6.90
2018-04-06T07:23:29.685Z,7.50
2018-04-06T07:28:34.406Z,7.50
2018-04-06T07:33:37.821Z,7.70
2018-04-06T07:38:41.154Z,7.90
2018-04-06T07:49:39.240Z,8.40
2018-04-06T07:54:43.897Z,8.40
2018-04-06T07:59:47.224Z,8.60
2018-04-06T08:04:50.932Z,9.00
2018-04-06T08:09:54.198Z,9.00
2018-04-06T08:14:57.402Z,9.10
2018-04-06T08:20:00.749Z,9.20
2018-04-06T08:25:04.026Z,9.40
2018-04-06T08:30:07.235Z,9.70
2018-04-06T08:35:10.486Z,9.80
2018-04-06T08:40:14.492Z,10.30
2018-04-06T08:45:18.409Z,10.50
2018-04-06T08:50:21.869Z,10.50
2018-04-06T08:55:25.242Z,10.50
2018-04-06T09:06:03.549Z,10.90
2018-04-06T09:11:06.776Z,10.90
2018-04-06T09:16:10.105Z,11.30
2018-04-06T09:21:13.419Z,11.40
2018-04-06T09:26:16.676Z,11.80
2018-04-06T09:31:19.888Z,12.00
2018-04-06T09:36:23.135Z,12.00
2018-04-06T09:41:26.359Z,12.10
2018-04-06T09:46:31.565Z,12.80
2018-04-06T09:51:39.952Z,12.80
2018-04-06T09:56:44.072Z,13.30
2018-04-06T10:01:48.216Z,13.70
2018-04-06T10:06:56.114Z,13.80
2018-04-06T10:12:01.243Z,14.00
2018-04-06T10:17:04.908Z,14.10
2018-04-06T10:22:08.270Z,14.10
2018-04-06T10:27:11.882Z,14.40
2018-04-06T10:32:15.548Z,14.40
2018-04-06T10:37:19.123Z,14.40
2018-04-06T10:42:22.463Z,13.80
2018-04-06T10:47:25.712Z,13.90
2018-04-06T10:52:29.112Z,14.40
2018-04-06T10:57:32.327Z,14.60
2018-04-06T11:02:36.979Z,14.90
2018-04-06T11:07:42.663Z,14.90
2018-04-06T11:12:46.078Z,14.90
2018-04-06T11:23:24.301Z,14.00
2018-04-06T11:28:27.526Z,14.70
2018-04-06T11:33:31.155Z,17.80
2018-04-06T11:38:35.093Z,17.80
2018-04-06T11:43:39.470Z,18.80
2018-04-06T11:48:45.554Z,21.10
2018-04-06T11:53:49.227Z,22.30
2018-04-06T11:58:52.574Z,22.30
2018-04-06T12:03:55.818Z,21.60
2018-04-06T12:08:59.061Z,22.70
2018-04-06T12:14:02.304Z,22.10
2018-04-06T12:19:05.928Z,22.40
2018-04-06T12:24:09.545Z,22.30
2018-04-06T12:29:12.848Z,22.20
2018-04-06T12:34:16.076Z,22.20
2018-04-06T12:39:19.470Z,23.50
2018-04-06T12:44:22.888Z,23.60
2018-04-06T12:49:27.774Z,23.70
2018-04-06T12:54:31.004Z,25.00
2018-04-06T12:59:34.325Z,24.60
2018-04-06T13:04:37.940Z,26.00
2018-04-06T13:09:41.163Z,25.90
2018-04-06T13:14:44.478Z,25.60
2018-04-06T13:19:47.693Z,22.00
2018-04-06T13:35:48.232Z,19.00
2018-04-06T13:40:51.606Z,19.50
2018-04-06T13:45:57.205Z,18.70
2018-04-06T13:51:00.533Z,18.80
2018-04-06T13:56:03.887Z,18.70
2018-04-06T14:01:07.513Z,20.50
2018-04-06T14:06:11.082Z,22.30
2018-04-06T14:11:14.801Z,21.70
2018-04-06T14:16:18.718Z,22.90
2018-04-06T14:21:22.339Z,22.30
2018-04-06T14:26:25.965Z,22.20
2018-04-06T14:31:29.844Z,22.60
2018-04-06T14:36:33.248Z,22.60
2018-04-06T14:41:36.604Z,22.30
2018-04-06T14:46:40.303Z,24.10
2018-04-06T14:51:43.659Z,24.10
2018-04-06T14:56:46.914Z,24.20
2018-04-06T15:01:50.541Z,20.40
2018-04-06T15:06:56.192Z,19.00
2018-04-06T15:11:59.817Z,18.50
2018-04-06T15:17:25.652Z,18.50
2018-04-06T15:22:29.336Z,18.60
2018-04-06T15:27:32.678Z,18.60
2018-04-06T15:32:36.375Z,18.10
2018-04-06T15:37:50.479Z,18.10
2018-04-06T15:42:53.708Z,17.90
2018-04-06T15:47:57.057Z,17.70
2018-04-06T15:53:00.274Z,17.60
2018-04-06T15:58:05.723Z,17.70
2018-04-06T16:03:09.339Z,17.90
2018-04-06T16:08:13.261Z,17.80
2018-04-06T16:13:16.491Z,17.80
2018-04-06T16:18:20.779Z,17.70
2018-04-06T16:23:23.990Z,17.60
2018-04-06T16:28:28.834Z,17.40
2018-04-06T16:33:32.161Z,17.40
2018-04-06T16:38:35.870Z,18.10
2018-04-06T16:43:39.199Z,18.10
2018-04-06T16:48:42.447Z,18.30
2018-04-06T16:53:47.107Z,18.00
2018-04-06T16:58:51.055Z,17.70
2018-04-06T17:03:54.699Z,16.50
2018-04-06T17:08:58.088Z,16.50
2018-04-06T17:14:01.796Z,16.00
2018-04-06T17:24:39.494Z,15.60
2018-04-06T17:29:42.873Z,15.60
2018-04-06T17:34:46.096Z,15.40
2018-04-06T17:39:50.882Z,15.20
2018-04-06T17:44:54.113Z,15.00
2018-04-06T17:49:57.496Z,14.80
2018-04-06T17:55:00.750Z,14.60
2018-04-06T18:00:04.221Z,14.40
2018-04-06T18:05:07.847Z,14.00
2018-04-06T18:10:11.549Z,13.90
2018-04-06T18:15:15.877Z,13.90
2018-04-06T18:20:19.195Z,13.70
2018-04-06T18:25:22.777Z,13.50
2018-04-06T18:30:27.013Z,13.40
2018-04-06T18:35:32.990Z,13.30
2018-04-06T18:40:36.696Z,13.30
2018-04-06T18:51:14.073Z,13.10
2018-04-06T18:56:17.873Z,12.90
2018-04-06T19:01:21.801Z,12.90
2018-04-06T19:06:25.737Z,12.70
2018-04-06T19:11:29.673Z,12.70
2018-04-06T19:16:32.917Z,12.60
2018-04-06T19:21:36.393Z,12.60
2018-04-06T19:32:15.446Z,12.30
2018-04-06T19:37:19.261Z,12.30
2018-04-06T19:42:23.038Z,12.10
2018-04-06T19:47:26.412Z,12.10
2018-04-06T19:52:29.828Z,12.10
2018-04-06T19:57:33.437Z,12.00
2018-04-06T20:02:46.851Z,12.00
2018-04-06T20:07:50.662Z,11.70
2018-04-06T20:12:54.293Z,11.70
2018-04-06T20:17:58.419Z,11.50
2018-04-06T20:23:02.329Z,11.50
2018-04-06T20:28:06.276Z,11.40
2018-04-06T20:33:12.549Z,11.40
2018-04-06T20:38:16.000Z,11.40
2018-04-06T20:43:19.390Z,11.30
2018-04-06T20:48:22.661Z,11.20
2018-04-06T20:53:26.352Z,11.10
2018-04-06T20:58:29.789Z,11.10
2018-04-06T21:03:33.621Z,10.80
2018-04-06T21:08:37.650Z,10.70
2018-04-06T21:13:41.042Z,10.70
2018-04-06T21:18:44.412Z,10.60
2018-04-06T21:23:48.890Z,10.60
2018-04-06T21:28:52.348Z,10.50
2018-04-06T21:33:55.725Z,10.50
2018-04-06T21:38:59.367Z,10.40
2018-04-06T21:44:02.633Z,10.40
2018-04-06T21:49:06.650Z,10.20
2018-04-06T21:54:10.771Z,10.20
2018-04-06T21:59:14.358Z,10.20
2018-04-06T22:04:17.747Z,10.20
2018-04-06T22:09:21.204Z,10.10
2018-04-06T22:14:24.986Z,9.80
2018-04-06T22:19:46.952Z,9.80
2018-04-06T22:24:50.755Z,9.70
2018-04-06T22:29:54.710Z,8.90
2018-04-06T22:40:35.632Z,8.60
2018-04-06T22:45:41.970Z,8.40
2018-04-06T22:50:46.040Z,8.40
2018-04-06T22:55:49.597Z,8.40
2018-04-06T23:00:53.063Z,8.20
2018-04-06T23:05:57.904Z,7.90
2018-04-06T23:11:01.109Z,7.90
2018-04-06T23:16:05.261Z,7.70
2018-04-06T23:21:08.616Z,7.70
2018-04-06T23:26:11.857Z,7.40
2018-04-06T23:31:15.577Z,7.10
2018-04-06T23:36:19.185Z,7.00
2018-04-06T23:41:23.078Z,7.10
2018-04-06T23:46:26.289Z,7.10
2018-04-06T23:51:29.882Z,7.10
2018-04-06T23:56:33.097Z,7.10
